createdAt,value
2022-12-15T00:01:42.205Z,99871.25
2022-12-15T00:04:27.360Z,99873.50
2022-12-15T00:07:12.308Z,99870.81
2022-12-15T00:09:57.335Z,99871.69
2022-12-15T00:12:42.513Z,99873.16
2022-12-15T00:15:27.481Z,99876.88
2022-12-15T00:18:12.537Z,99868.91
2022-12-15T00:20:57.574Z,99872.16
2022-12-15T00:23:42.609Z,99877.91
2022-12-15T00:26:27.623Z,99877.91
2022-12-15T00:29:12.768Z,99871.84
2022-12-15T00:31:57.873Z,99881.00
2022-12-15T00:34:42.991Z,99877.31
2022-12-15T00:37:28.155Z,99884.88
2022-12-15T00:39:58.810Z,99887.25
2022-12-15T00:42:28.805Z,99894.34
2022-12-15T00:44:56.126Z,99895.81
2022-12-15T00:47:22.925Z,99891.66
2022-12-15T00:50:08.042Z,99883.97
2022-12-15T00:52:53.133Z,99892.41
2022-12-15T00:55:38.937Z,99898.16
2022-12-15T00:58:24.009Z,99893.75
2022-12-15T01:01:09.144Z,99898.63
2022-12-15T01:03:54.171Z,99898.47
2022-12-15T01:06:39.754Z,99895.81
2022-12-15T01:09:27.212Z,99898.19
2022-12-15T01:12:12.027Z,99898.19
2022-12-15T01:14:57.141Z,99913.28
2022-12-15T01:17:42.101Z,99904.09
2022-12-15T01:20:18.661Z,99913.28
2022-12-15T01:22:49.924Z,99915.03
2022-12-15T01:25:17.882Z,99911.03
2022-12-15T01:27:44.926Z,99913.56
2022-12-15T01:30:14.129Z,99913.56
2022-12-15T01:32:45.799Z,99918.59
2022-12-15T01:35:12.626Z,99925.38
2022-12-15T01:37:39.081Z,99926.88
2022-12-15T01:40:26.592Z,99933.53
2022-12-15T01:42:53.480Z,99925.97
2022-12-15T01:45:29.047Z,99925.09
2022-12-15T01:48:02.820Z,99922.72
2022-12-15T01:50:30.073Z,99929.25
2022-12-15T01:52:56.554Z,99931.75
2022-12-15T01:55:25.600Z,99930.72
2022-12-15T01:57:54.702Z,99920.66
2022-12-15T02:00:21.114Z,99931.00
2022-12-15T02:02:47.617Z,99930.13
2022-12-15T02:05:14.152Z,99935.16
2022-12-15T02:07:40.566Z,99940.19
2022-12-15T02:10:10.151Z,99942.69
2022-12-15T02:12:48.655Z,99952.91
2022-12-15T02:15:28.071Z,99953.78
2022-12-15T02:18:04.613Z,99956.16
2022-12-15T02:20:58.674Z,99950.25
2022-12-15T02:24:00.503Z,99943.44
2022-12-15T02:26:44.968Z,99953.34
2022-12-15T02:29:31.545Z,99952.47
2022-12-15T02:32:08.913Z,99947.44
2022-12-15T02:34:43.357Z,99952.59
2022-12-15T02:37:26.420Z,99953.16
2022-12-15T02:39:52.847Z,99949.75
2022-12-15T02:42:19.336Z,99954.66
2022-12-15T02:44:53.542Z,99954.66
2022-12-15T02:47:32.056Z,99958.63
2022-12-15T02:50:23.905Z,99961.88
2022-12-15T02:52:55.144Z,99960.13
2022-12-15T02:55:43.520Z,99958.34
2022-12-15T02:58:33.797Z,99971.81
2022-12-15T03:01:05.790Z,99978.44
2022-12-15T03:03:34.424Z,99983.34
2022-12-15T03:06:05.189Z,99980.66
2022-12-15T03:08:31.601Z,99977.13
2022-12-15T03:10:58.653Z,99985.38
2022-12-15T03:13:25.538Z,99987.88
2022-12-15T03:15:52.652Z,99987.88
2022-12-15T03:18:19.098Z,99989.69
2022-12-15T03:20:45.585Z,99988.81
2022-12-15T03:23:12.063Z,99980.94
2022-12-15T03:25:38.475Z,99985.81
2022-12-15T03:28:05.111Z,99983.00
2022-12-15T03:30:31.811Z,99986.25
2022-12-15T03:32:58.308Z,99981.97
2022-12-15T03:35:24.778Z,99986.84
2022-12-15T03:37:51.322Z,99984.31
2022-12-15T03:40:17.795Z,99972.34
2022-12-15T03:42:51.220Z,99991.84
2022-12-15T03:45:21.354Z,99990.63
2022-12-15T03:47:48.227Z,99986.19
2022-12-15T03:50:17.174Z,99991.38
2022-12-15T03:52:43.639Z,99996.09
2022-12-15T03:55:10.665Z,100000.38
2022-12-15T03:57:37.228Z,99998.63
2022-12-15T04:00:05.565Z,99993.59
2022-12-15T04:02:32.097Z,100002.00
2022-12-15T04:04:58.844Z,100003.63
2022-12-15T04:07:25.257Z,100015.47
2022-12-15T04:09:51.644Z,100026.25
2022-12-15T04:12:18.044Z,100037.03
2022-12-15T04:14:44.447Z,100037.94
2022-12-15T04:17:11.793Z,100042.97
2022-12-15T04:19:56.936Z,100038.09
2022-12-15T04:22:23.697Z,100038.81
2022-12-15T04:25:08.814Z,100043.84
2022-12-15T04:27:58.398Z,100045.47
2022-12-15T04:30:46.391Z,100047.69
2022-12-15T04:33:31.316Z,100049.03
2022-12-15T04:36:16.527Z,100045.63
2022-12-15T04:39:01.433Z,100062.34
2022-12-15T04:41:46.503Z,100052.09
2022-12-15T04:44:31.626Z,100062.16
2022-12-15T04:47:17.167Z,100056.22
2022-12-15T04:50:02.263Z,100060.38
2022-12-15T04:52:47.235Z,100059.47
2022-12-15T04:55:32.214Z,100061.09
2022-12-15T04:58:17.134Z,100056.22
2022-12-15T05:01:02.309Z,100063.78
2022-12-15T05:03:47.315Z,100070.41
2022-12-15T05:06:32.507Z,100062.16
2022-12-15T05:09:17.549Z,100066.47
2022-12-15T05:12:02.520Z,100071.50
2022-12-15T05:14:49.416Z,100079.03
2022-12-15T05:17:38.282Z,100085.97
2022-12-15T05:20:26.921Z,100083.44
2022-12-15T05:23:15.420Z,100090.25
2022-12-15T05:26:00.934Z,100102.06
2022-12-15T05:28:46.061Z,100099.56
2022-12-15T05:31:31.345Z,100107.09
2022-12-15T05:34:04.793Z,100108.88
2022-12-15T05:36:31.432Z,100095.72
2022-12-15T05:38:57.848Z,100095.31
2022-12-15T05:41:24.482Z,100101.56
2022-12-15T05:43:50.898Z,100098.59
2022-12-15T05:46:17.378Z,100095.66
2022-12-15T05:48:43.850Z,100093.31
2022-12-15T05:51:11.577Z,100090.94
2022-12-15T05:53:38.653Z,100100.59
2022-12-15T05:56:13.081Z,100100.59
2022-12-15T05:58:45.060Z,100104.00
2022-12-15T06:01:15.567Z,100109.19
2022-12-15T06:03:42.284Z,100102.53
2022-12-15T06:06:10.085Z,100120.28
2022-12-15T06:08:38.333Z,100110.22
2022-12-15T06:11:05.352Z,100111.25
2022-12-15T06:13:34.511Z,100116.28
2022-12-15T06:16:02.652Z,100120.91
2022-12-15T06:18:36.164Z,100121.22
2022-12-15T06:21:04.576Z,100117.22
2022-12-15T06:23:33.187Z,100124.50
2022-12-15T06:26:01.038Z,100120.34
2022-12-15T06:28:27.469Z,100123.03
2022-12-15T06:30:55.320Z,100130.56
2022-12-15T06:33:22.891Z,100131.31
2022-12-15T06:35:49.699Z,100137.22
2022-12-15T06:38:16.129Z,100144.06
2022-12-15T06:40:42.567Z,100142.25
2022-12-15T06:43:09.211Z,100146.38
2022-12-15T06:45:35.861Z,100137.06
2022-12-15T06:48:02.305Z,100145.50
2022-12-15T06:50:28.764Z,100146.38
2022-12-15T06:52:55.185Z,100141.06
2022-12-15T06:55:21.585Z,100139.59
2022-12-15T06:57:48.904Z,100142.25
2022-12-15T07:00:15.907Z,100142.25
2022-12-15T07:02:49.955Z,100145.66
2022-12-15T07:05:16.854Z,100147.63
2022-12-15T07:07:43.265Z,100149.41
2022-12-15T07:10:10.927Z,100140.38
2022-12-15T07:12:37.349Z,100150.59
2022-12-15T07:15:03.990Z,100155.03
2022-12-15T07:17:30.397Z,100153.56
2022-12-15T07:19:56.944Z,100174.00
2022-12-15T07:22:23.398Z,100182.59
2022-12-15T07:24:49.873Z,100187.78
2022-12-15T07:27:18.012Z,100188.81
2022-12-15T07:29:44.516Z,100188.25
2022-12-15T07:32:10.929Z,100191.06
2022-12-15T07:34:37.337Z,100196.25
2022-12-15T07:37:03.779Z,100200.88
2022-12-15T07:39:30.436Z,100197.03
2022-12-15T07:41:56.846Z,100198.97
2022-12-15T07:44:23.259Z,100204.28
2022-12-15T07:46:49.831Z,100200.34
2022-12-15T07:49:17.394Z,100206.41
2022-12-15T07:51:44.199Z,100216.78
2022-12-15T07:54:11.438Z,100217.97
2022-12-15T07:56:39.433Z,100213.25
2022-12-15T07:59:06.970Z,100217.13
2022-12-15T08:01:35.103Z,100226.00
2022-12-15T08:04:01.894Z,100229.91
2022-12-15T08:06:28.463Z,100228.72
2022-12-15T08:08:54.903Z,100236.72
2022-12-15T08:11:22.955Z,100233.22
2022-12-15T08:14:02.386Z,100225.38
2022-12-15T08:16:29.910Z,100225.81
2022-12-15T08:18:59.588Z,100234.13
2022-12-15T08:21:26.114Z,100232.22
2022-12-15T08:23:52.721Z,100230.47
2022-12-15T08:26:21.427Z,100228.53
2022-12-15T08:28:50.197Z,100235.22
2022-12-15T08:31:19.164Z,100239.41
2022-12-15T08:33:45.963Z,100234.78
2022-12-15T08:36:13.875Z,100238.78
2022-12-15T08:38:41.249Z,100241.91
2022-12-15T08:41:13.257Z,100252.59
2022-12-15T08:43:47.696Z,100252.44
2022-12-15T08:46:17.104Z,100251.41
2022-12-15T08:48:43.734Z,100252.00
2022-12-15T08:51:10.583Z,100253.47
2022-12-15T08:53:37.028Z,100255.81
2022-12-15T08:56:12.176Z,100261.44
2022-12-15T08:58:38.980Z,100250.91
2022-12-15T09:01:11.069Z,100255.03
2022-12-15T09:03:37.938Z,100263.97
2022-12-15T09:06:05.725Z,100267.66
2022-12-15T09:08:32.465Z,100271.63
2022-12-15T09:10:59.667Z,100271.22
2022-12-15T09:13:26.685Z,100265.69
2022-12-15T09:16:10.380Z,100269.53
2022-12-15T09:18:37.594Z,100273.53
2022-12-15T09:21:05.702Z,100272.19
2022-12-15T09:23:32.525Z,100265.78
2022-12-15T09:26:14.294Z,100270.53
2022-12-15T09:28:41.467Z,100268.41
2022-12-15T09:31:09.548Z,100273.75
2022-12-15T09:33:36.252Z,100278.63
2022-12-15T09:36:03.892Z,100280.69
2022-12-15T09:38:30.997Z,100273.53
2022-12-15T09:40:57.519Z,100279.91
2022-12-15T09:43:35.157Z,100284.22
2022-12-15T09:46:30.506Z,100294.13
2022-12-15T09:48:58.364Z,100290.28
2022-12-15T09:51:34.552Z,100299.78
2022-12-15T09:54:01.659Z,100296.03
2022-12-15T09:56:44.459Z,100300.59
2022-12-15T09:59:40.108Z,100298.53
2022-12-15T10:02:35.664Z,100303.22
2022-12-15T10:05:16.733Z,100302.75
2022-12-15T10:07:46.370Z,100300.81
2022-12-15T10:10:24.211Z,100301.97
2022-12-15T10:13:01.051Z,100309.38
2022-12-15T10:15:31.948Z,100310.81
2022-12-15T10:18:10.163Z,100309.91
2022-12-15T10:20:36.816Z,100316.84
2022-12-15T10:23:12.409Z,100317.56
2022-12-15T10:25:39.660Z,100305.44
2022-12-15T10:28:43.661Z,100313.56
2022-12-15T10:31:19.466Z,100310.59
2022-12-15T10:33:50.189Z,100305.28
2022-12-15T10:36:16.967Z,100303.47
2022-12-15T10:38:47.341Z,100313.34
2022-12-15T10:41:26.172Z,100312.16
2022-12-15T10:43:53.871Z,100312.66
2022-12-15T10:46:23.034Z,100309.06
2022-12-15T10:49:18.645Z,100319.31
2022-12-15T10:51:53.894Z,100317.69
2022-12-15T10:54:21.131Z,100310.78
2022-12-15T10:56:58.439Z,100315.97
2022-12-15T10:59:28.384Z,100312.59
2022-12-15T11:01:54.939Z,100313.88
2022-12-15T11:04:28.705Z,100307.44
2022-12-15T11:07:00.692Z,100300.50
2022-12-15T11:09:37.512Z,100293.56
2022-12-15T11:12:36.791Z,100293.81
2022-12-15T11:15:23.118Z,100272.28
2022-12-15T11:17:56.351Z,100281.44
2022-12-15T11:20:28.115Z,100281.19
2022-12-15T11:23:18.498Z,100291.34
2022-12-15T11:26:00.470Z,100300.50
2022-12-15T11:28:39.989Z,100294.03
2022-12-15T11:31:24.771Z,100293.75
2022-12-15T11:33:54.661Z,100301.53
2022-12-15T11:36:42.302Z,100300.50
2022-12-15T11:39:36.329Z,100301.63
2022-12-15T11:42:21.904Z,100299.09
2022-12-15T11:45:16.221Z,100295.44
2022-12-15T11:48:04.052Z,100296.06
2022-12-15T11:50:39.485Z,100299.25
2022-12-15T11:53:14.866Z,100286.66
2022-12-15T11:55:50.739Z,100296.41
2022-12-15T11:58:29.563Z,100292.63
2022-12-15T12:01:35.150Z,100300.59
2022-12-15T12:04:15.601Z,100306.81
2022-12-15T12:07:08.763Z,100307.06
2022-12-15T12:09:37.090Z,100297.16
2022-12-15T12:12:18.730Z,100304.91
2022-12-15T12:14:50.472Z,100296.75
2022-12-15T12:17:43.929Z,100298.91
2022-12-15T12:20:21.830Z,100295.09
2022-12-15T12:23:11.408Z,100289.78
2022-12-15T12:25:43.438Z,100297.88
2022-12-15T12:28:17.255Z,100300.00
2022-12-15T12:30:50.416Z,100308.00
2022-12-15T12:33:33.306Z,100303.94
2022-12-15T12:36:10.333Z,100307.84
2022-12-15T12:38:46.167Z,100302.38
2022-12-15T12:41:29.567Z,100299.06
2022-12-15T12:44:00.734Z,100299.06
2022-12-15T12:46:28.748Z,100304.38
2022-12-15T12:49:18.763Z,100306.03
2022-12-15T12:51:52.795Z,100308.03
2022-12-15T12:54:34.439Z,100309.09
2022-12-15T12:57:01.671Z,100299.81
2022-12-15T12:59:30.986Z,100300.03
2022-12-15T13:02:00.481Z,100292.75
2022-12-15T13:04:29.871Z,100295.66
2022-12-15T13:07:00.178Z,100290.84
2022-12-15T13:09:43.475Z,100288.41
2022-12-15T13:15:27.009Z,100291.53
2022-12-15T13:17:56.360Z,100283.00
2022-12-15T13:20:28.104Z,100284.94
2022-12-15T13:22:55.025Z,100268.91
2022-12-15T13:25:42.029Z,100275.00
2022-12-15T13:28:31.416Z,100277.53
2022-12-15T13:31:14.955Z,100281.63
2022-12-15T13:33:45.681Z,100294.56
2022-12-15T13:36:39.608Z,100295.56
2022-12-15T13:39:12.269Z,100297.88
2022-12-15T13:42:07.366Z,100286.94
2022-12-15T13:44:42.752Z,100285.38
2022-12-15T13:47:16.644Z,100284.50
2022-12-15T13:50:01.409Z,100288.94
2022-12-15T13:53:08.472Z,100286.63
2022-12-15T13:55:27.851Z,100287.41
2022-12-15T13:57:58.685Z,100287.41
2022-12-15T14:00:25.217Z,100284.84
2022-12-15T14:02:51.766Z,100281.53
2022-12-15T14:05:22.337Z,100275.81
2022-12-15T14:07:54.338Z,100277.94
2022-12-15T14:10:27.237Z,100280.59
2022-12-15T14:12:56.759Z,100274.75
2022-12-15T14:15:30.027Z,100278.16
2022-12-15T14:17:58.190Z,100273.75
2022-12-15T14:20:38.934Z,100276.16
2022-12-15T14:23:22.584Z,100281.91
2022-12-15T14:26:16.190Z,100275.69
2022-12-15T14:28:45.539Z,100282.31
2022-12-15T14:31:16.140Z,100287.16
2022-12-15T14:33:44.657Z,100285.16
2022-12-15T14:36:18.123Z,100291.66
2022-12-15T14:38:52.031Z,100281.91
2022-12-15T14:41:25.474Z,100285.09
2022-12-15T14:44:31.319Z,100288.94
2022-12-15T14:46:48.192Z,100290.34
2022-12-15T14:49:20.497Z,100295.19
2022-12-15T14:51:49.227Z,100299.81
2022-12-15T14:54:27.591Z,100313.00
2022-12-15T14:57:20.406Z,100311.00
2022-12-15T14:59:48.671Z,100305.69
2022-12-15T15:02:26.722Z,100293.25
2022-12-15T15:03:07.366Z,100292.84
2022-12-15T15:05:04.955Z,100299.63
2022-12-15T15:07:33.048Z,100300.94
2022-12-15T15:10:01.034Z,100300.66
2022-12-15T15:12:47.713Z,100307.03
2022-12-15T15:15:19.489Z,100301.84
2022-12-15T15:17:54.879Z,100304.91
2022-12-15T15:20:29.957Z,100291.91
2022-12-15T15:23:08.549Z,100303.63
2022-12-15T15:25:40.776Z,100294.09
2022-12-15T15:28:19.483Z,100292.09
2022-12-15T15:30:50.556Z,100296.28
2022-12-15T15:33:17.938Z,100295.13
2022-12-15T15:35:45.314Z,100298.19
2022-12-15T15:38:23.123Z,100297.06
2022-12-15T15:40:57.675Z,100296.66
2022-12-15T15:43:25.357Z,100297.44
2022-12-15T15:46:00.999Z,100297.19
2022-12-15T15:48:31.393Z,100310.66
2022-12-15T15:50:59.726Z,100305.31
2022-12-15T15:53:26.425Z,100306.84
2022-12-15T15:55:54.487Z,100298.84
2022-12-15T15:58:21.299Z,100305.44
2022-12-15T16:00:47.716Z,100298.59
2022-12-15T16:03:14.366Z,100304.31
2022-12-15T16:05:41.880Z,100312.69
2022-12-15T16:08:14.349Z,100309.03
2022-12-15T16:10:42.985Z,100307.09
2022-12-15T16:13:09.729Z,100312.81
2022-12-15T16:15:36.214Z,100321.81
2022-12-15T16:18:02.675Z,100319.81
2022-12-15T16:20:29.600Z,100331.47
2022-12-15T16:23:05.601Z,100337.03
2022-12-15T16:25:46.713Z,100329.06
2022-12-15T16:28:18.988Z,100337.31
2022-12-15T16:30:45.465Z,100346.56
2022-12-15T16:33:12.404Z,100342.25
2022-12-15T16:35:40.092Z,100343.78
2022-12-15T16:38:11.836Z,100346.56
2022-12-15T16:40:38.548Z,100350.75
2022-12-15T16:43:16.967Z,100358.22
2022-12-15T16:45:45.541Z,100358.84
2022-12-15T16:48:12.814Z,100353.50
2022-12-15T16:50:41.615Z,100349.97
2022-12-15T16:53:18.322Z,100355.78
2022-12-15T16:55:45.374Z,100360.63
2022-12-15T16:58:17.286Z,100367.34
2022-12-15T17:00:44.822Z,100368.84
2022-12-15T17:03:15.818Z,100374.66
2022-12-15T17:05:45.001Z,100373.78
2022-12-15T17:08:18.904Z,100376.06
2022-12-15T17:10:46.594Z,100384.16
2022-12-15T17:13:39.077Z,100384.66
2022-12-15T17:16:11.160Z,100387.53
2022-12-15T17:18:38.089Z,100385.50
2022-12-15T17:21:07.469Z,100385.84
2022-12-15T17:23:35.216Z,100388.88
2022-12-15T17:26:22.588Z,100383.56
2022-12-15T17:28:48.771Z,100389.25
2022-12-15T17:31:21.017Z,100384.81
2022-12-15T17:33:48.006Z,100385.41
2022-12-15T17:36:22.332Z,100385.16
2022-12-15T17:38:52.265Z,100391.63
2022-12-15T17:41:35.441Z,100392.09
2022-12-15T17:44:35.648Z,100398.53
2022-12-15T17:47:06.075Z,100386.47
2022-12-15T17:49:36.028Z,100385.47
2022-12-15T17:52:06.566Z,100393.69
2022-12-15T17:54:33.553Z,100390.41
2022-12-15T17:56:59.966Z,100393.56
2022-12-15T17:59:26.399Z,100384.06
2022-12-15T18:01:52.976Z,100383.63
2022-12-15T18:04:19.542Z,100385.13
2022-12-15T18:06:46.063Z,100389.94
2022-12-15T18:09:17.905Z,100391.44
2022-12-15T18:11:46.651Z,100397.16
2022-12-15T18:14:14.980Z,100408.75
2022-12-15T18:16:41.848Z,100417.88
2022-12-15T18:19:08.356Z,100413.56
2022-12-15T18:21:34.784Z,100413.41
2022-12-15T18:24:01.348Z,100408.09
2022-12-15T18:26:28.123Z,100411.50
2022-12-15T18:28:54.639Z,100407.34
2022-12-15T18:31:27.631Z,100407.06
2022-12-15T18:34:01.065Z,100416.91
2022-12-15T18:36:29.139Z,100431.06
2022-12-15T18:38:55.595Z,100432.56
2022-12-15T18:41:22.002Z,100438.13
2022-12-15T18:43:48.836Z,100433.06
2022-12-15T18:46:16.475Z,100431.00
2022-12-15T18:48:43.431Z,100439.06
2022-12-15T18:51:28.883Z,100431.19
2022-12-15T18:53:55.325Z,100432.69
2022-12-15T18:56:23.717Z,100431.69
2022-12-15T18:58:50.218Z,100428.13
2022-12-15T19:01:16.739Z,100434.53
2022-12-15T19:03:43.213Z,100438.44
2022-12-15T19:06:34.862Z,100439.03
2022-12-15T19:09:10.332Z,100426.88
2022-12-15T19:11:36.803Z,100431.75
2022-12-15T19:14:03.676Z,100421.34
2022-12-15T19:16:52.948Z,100414.53
2022-12-15T19:19:38.016Z,100424.66
2022-12-15T19:22:29.814Z,100422.88
2022-12-15T19:24:56.403Z,100434.22
2022-12-15T19:27:26.479Z,100432.00
2022-12-15T19:29:54.476Z,100436.16
2022-12-15T19:32:21.155Z,100429.06
2022-12-15T19:34:47.542Z,100434.13
2022-12-15T19:37:23.255Z,100427.13
2022-12-15T19:39:50.000Z,100429.53
2022-12-15T19:42:29.047Z,100426.56
2022-12-15T19:44:55.530Z,100434.88
2022-12-15T19:47:22.033Z,100423.59
2022-12-15T19:49:48.477Z,100421.81
2022-12-15T19:52:16.802Z,100420.81
2022-12-15T19:54:44.298Z,100421.41
2022-12-15T19:57:15.870Z,100425.41
2022-12-15T19:59:42.296Z,100435.38
2022-12-15T20:02:20.299Z,100434.34
2022-12-15T20:04:47.780Z,100437.63
2022-12-15T20:07:28.188Z,100432.31
2022-12-15T20:09:55.952Z,100437.97
2022-12-15T20:12:22.654Z,100434.41
2022-12-15T20:14:50.092Z,100434.09
2022-12-15T20:17:16.564Z,100430.53
2022-12-15T20:19:43.408Z,100430.41
2022-12-15T20:22:15.205Z,100442.75
2022-12-15T20:24:42.558Z,100439.94
2022-12-15T20:27:13.741Z,100444.88
2022-12-15T20:29:40.378Z,100447.22
2022-12-15T20:32:13.809Z,100442.16
2022-12-15T20:34:40.269Z,100445.44
2022-12-15T20:37:28.049Z,100444.75
2022-12-15T20:39:57.740Z,100442.97
2022-12-15T20:42:24.630Z,100441.03
2022-12-15T20:44:51.061Z,100446.97
2022-12-15T20:47:25.648Z,100436.69
2022-12-15T20:49:52.945Z,100434.78
2022-12-15T20:52:22.739Z,100439.69
2022-12-15T20:54:50.109Z,100436.88
2022-12-15T20:57:16.660Z,100433.31
2022-12-15T20:59:43.097Z,100430.66
2022-12-15T21:02:21.244Z,100438.09
2022-12-15T21:04:48.422Z,100430.19
2022-12-15T21:07:14.834Z,100437.78
2022-12-15T21:09:41.306Z,100431.53
2022-12-15T21:12:22.684Z,100433.66
2022-12-15T21:14:49.348Z,100435.88
2022-12-15T21:17:17.244Z,100437.53
2022-12-15T21:19:44.195Z,100436.59
2022-12-15T21:22:28.948Z,100433.78
2022-12-15T21:24:58.233Z,100434.38
2022-12-15T21:27:24.740Z,100429.19
2022-12-15T21:29:52.818Z,100430.53
2022-12-15T21:32:19.996Z,100438.72
2022-12-15T21:34:46.438Z,100426.81
2022-12-15T21:37:24.848Z,100434.56
2022-12-15T21:39:51.667Z,100436.03
2022-12-15T21:42:19.574Z,100436.91
2022-12-15T21:44:45.997Z,100444.34
2022-12-15T21:47:24.864Z,100440.63
2022-12-15T21:49:51.428Z,100438.84
2022-12-15T21:52:19.181Z,100441.97
2022-12-15T21:54:45.642Z,100443.47
2022-12-15T21:57:12.828Z,100446.56
2022-12-15T21:59:39.343Z,100445.53
2022-12-15T22:02:24.641Z,100443.59
2022-12-15T22:04:51.881Z,100440.94
2022-12-15T22:07:18.659Z,100441.69
2022-12-15T22:09:45.129Z,100442.56
2022-12-15T22:12:23.233Z,100442.44
2022-12-15T22:14:49.676Z,100445.69
2022-12-15T22:17:22.066Z,100451.63
2022-12-15T22:19:48.515Z,100449.84
2022-12-15T22:22:15.550Z,100452.22
2022-12-15T22:24:42.261Z,100453.88
2022-12-15T22:27:19.906Z,100448.63
2022-12-15T22:29:47.217Z,100450.88
2022-12-15T22:32:14.881Z,100448.19
2022-12-15T22:34:41.327Z,100445.38
2022-12-15T22:37:08.008Z,100451.03
2022-12-15T22:39:34.634Z,100453.81
2022-12-15T22:42:01.316Z,100454.28
2022-12-15T22:44:32.406Z,100451.59
2022-12-15T22:47:00.062Z,100459.19
2022-12-15T22:49:31.199Z,100451.47
2022-12-15T22:51:58.115Z,100454.13
2022-12-15T22:54:26.352Z,100454.13
2022-12-15T22:56:59.955Z,100454.72
2022-12-15T22:59:34.298Z,100459.63
2022-12-15T23:02:02.068Z,100457.84
2022-12-15T23:04:29.947Z,100456.78
2022-12-15T23:06:57.392Z,100462.72
2022-12-15T23:09:23.950Z,100465.41
2022-12-15T23:11:50.369Z,100467.75
2022-12-15T23:14:17.911Z,100469.25
2022-12-15T23:16:45.510Z,100461.53
2022-12-15T23:19:23.905Z,100463.16
2022-12-15T23:21:51.062Z,100452.03
2022-12-15T23:24:18.466Z,100449.34
2022-12-15T23:26:44.894Z,100448.16
2022-12-15T23:29:11.366Z,100457.38
2022-12-15T23:31:37.844Z,100453.97
2022-12-15T23:34:04.808Z,100450.53
2022-12-15T23:36:31.297Z,100447.28
2022-12-15T23:38:58.003Z,100452.03
2022-12-15T23:41:24.421Z,100464.75
2022-12-15T23:43:50.828Z,100462.13
2022-12-15T23:46:18.797Z,100464.66
2022-12-15T23:48:45.448Z,100468.66
2022-12-15T23:51:17.521Z,100468.06
2022-12-15T23:53:44.887Z,100471.72
2022-12-15T23:56:15.391Z,100472.91
2022-12-15T23:58:43.880Z,100471.56
